LOAU weather

Stockerau Airport
Stockerau, Lower Austria, Austria

Public forecast

Using degrees Celsius for public forecast. Weather courtesy of forecast.io.

METAR (pilot weather report)

Report is more than 6 hours old.

Closest report is Brumowski Air Base, 6.4 nm (11.8 km) SSW. Retrieved 2019/05/20 19:50 UTC (7 hours ago):

LOXT 201950Z 17001KT 40KM FEW070SC SCT300CI 13/12 Q1003 RMK WIND INFO EST/SCT

TAF (pilot weather forecast)

Forecast is more than 12 hours old.

Closest forecast is Brumowski Air Base, 6.4 nm (11.8 km) SSW. Retrieved 2010/04/07 08:00 UTC (9 years ago):

TAF LOXT 070800Z 0709/0918 VRB03KT 9999 SKC BECMG 0710/0712 05005KT FEW040